Time;durP1;ratioP1;P1;durP2;ratioP2;P2;SDS_P1;SDS_P2;PMS_P1;PMS_P2;Temp;Humidity;BMP_temperature;BMP_pressure;BME280_temperature;BME280_humidity;BME280_pressure;Samples;Min_cycle;Max_cycle;Signal;HPM_P1;HPM_P2
2022/08/18 00:02:12;;;;;;;165.15;79.13;;;;;;;19.51;100.00;101139.06;4988799;28;20041;-70
2022/08/18 00:04:38;;;;;;;149.75;73.22;;;;;;;19.52;100.00;101136.19;4972572;28;20107;-70
2022/08/18 00:07:06;;;;;;;154.40;72.25;;;;;;;19.45;100.00;101151.31;4993700;28;21129;-69
2022/08/18 00:09:34;;;;;;;136.40;69.00;;;;;;;19.39;100.00;101151.91;4970142;28;20046;-70
2022/08/18 00:12:04;;;;;;;141.52;66.75;;;;;;;19.42;100.00;101152.44;4991757;28;20037;-70
2022/08/18 00:14:29;;;;;;;125.55;62.75;;;;;;;19.44;100.00;101156.88;4976792;28;20025;-70
2022/08/18 00:16:55;;;;;;;122.38;61.40;;;;;;;19.44;100.00;101162.28;4972846;28;20075;-69
2022/08/18 00:19:22;;;;;;;100.55;53.17;;;;;;;19.37;100.00;101168.25;4988272;28;20451;-70
2022/08/18 00:21:48;;;;;;;98.70;50.83;;;;;;;19.36;100.00;101163.84;4974078;28;20144;-70
2022/08/18 00:24:13;;;;;;;84.97;47.25;;;;;;;19.32;100.00;101161.59;4990563;28;20092;-69
2022/08/18 00:26:39;;;;;;;87.50;46.92;;;;;;;19.30;100.00;101160.91;4976926;28;20203;-70
2022/08/18 00:29:04;;;;;;;78.10;42.38;;;;;;;19.25;100.00;101160.47;4977223;28;20072;-69
2022/08/18 00:31:30;;;;;;;74.40;40.22;;;;;;;19.19;100.00;101171.88;4981020;28;20511;-70
2022/08/18 00:33:56;;;;;;;65.72;40.15;;;;;;;19.26;100.00;101167.59;4974302;28;20042;-70
2022/08/18 00:36:21;;;;;;;70.22;40.17;;;;;;;19.34;100.00;101167.72;4973038;28;20038;-70
2022/08/18 00:38:47;;;;;;;64.90;37.83;;;;;;;19.30;100.00;101164.44;4988394;28;20033;-69
2022/08/18 00:41:12;;;;;;;67.22;36.85;;;;;;;19.31;100.00;101160.75;4991663;28;20063;-70
2022/08/18 00:43:48;;;;;;;62.95;36.80;;;;;;;19.26;100.00;101165.72;4991040;28;21072;-70
2022/08/18 00:46:34;;;;;;;66.53;37.42;;;;;;;19.37;100.00;101172.81;4989152;28;20041;-70
2022/08/18 00:49:00;;;;;;;61.08;37.10;;;;;;;19.29;100.00;101162.75;4983414;28;20049;-70
2022/08/18 00:51:28;;;;;;;61.55;37.30;;;;;;;19.21;100.00;101173.44;4986287;28;20046;-70
2022/08/18 00:54:18;;;;;;;64.28;37.20;;;;;;;19.16;100.00;101173.00;4987845;28;20042;-70
2022/08/18 00:56:48;;;;;;;66.03;38.03;;;;;;;19.04;100.00;101174.19;4988486;28;20048;-70
2022/08/18 00:59:30;;;;;;;60.28;36.40;;;;;;;19.00;100.00;101183.56;4975861;28;20095;-70
2022/08/18 01:02:01;;;;;;;58.87;35.40;;;;;;;19.00;100.00;101180.88;4988815;28;20120;-69
2022/08/18 01:04:43;;;;;;;66.13;36.95;;;;;;;19.07;100.00;101192.78;4986453;28;20042;-69
2022/08/18 01:07:35;;;;;;;57.50;33.72;;;;;;;19.03;100.00;101180.59;4967023;28;20072;-70
2022/08/18 01:10:04;;;;;;;61.38;32.00;;;;;;;18.98;100.00;101185.56;4991051;28;20127;-70
2022/08/18 01:12:30;;;;;;;55.42;31.95;;;;;;;19.06;100.00;101191.94;4970110;28;20846;-70
2022/08/18 01:14:56;;;;;;;59.25;32.90;;;;;;;19.05;100.00;101190.25;4987362;28;20042;-70
2022/08/18 01:23:08;;;;;;;57.10;32.45;;;;;;;19.14;100.00;101199.34;4990654;28;20069;-69
2022/08/18 01:28:21;;;;;;;53.85;31.58;;;;;;;19.05;100.00;101190.25;4987507;28;20415;-70
2022/08/18 01:30:50;;;;;;;56.58;33.45;;;;;;;18.99;100.00;101181.88;4987867;28;20034;-69
2022/08/18 01:33:17;;;;;;;59.35;32.20;;;;;;;19.04;100.00;101183.13;4967673;28;20060;-69
2022/08/18 01:35:48;;;;;;;49.92;32.50;;;;;;;19.06;100.00;101188.38;4989075;28;20048;-69
2022/08/18 01:38:18;;;;;;;60.72;32.97;;;;;;;19.07;100.00;101184.69;4971858;28;20483;-70
2022/08/18 01:40:45;;;;;;;56.65;32.78;;;;;;;18.98;100.00;101177.47;4975736;28;20144;-70
2022/08/18 01:43:11;;;;;;;57.53;33.72;;;;;;;18.91;100.00;101179.00;4988400;28;20030;-70
2022/08/18 01:45:37;;;;;;;55.60;34.08;;;;;;;18.96;100.00;101179.44;4990106;28;20037;-70
2022/08/18 01:48:03;;;;;;;58.53;33.40;;;;;;;18.99;100.00;101180.00;4970662;28;20074;-69
2022/08/18 01:50:30;;;;;;;58.83;34.10;;;;;;;18.99;100.00;101189.97;4969072;28;20861;-69
2022/08/18 01:52:56;;;;;;;55.90;34.08;;;;;;;18.96;100.00;101188.41;4988825;28;20084;-70
2022/08/18 01:55:21;;;;;;;53.10;32.10;;;;;;;18.94;100.00;101186.84;4987830;28;20034;-70
2022/08/18 01:57:46;;;;;;;59.15;33.75;;;;;;;18.94;100.00;101193.09;4987855;28;20145;-70
2022/08/18 02:00:14;;;;;;;56.13;32.95;;;;;;;18.87;100.00;101192.81;4991931;28;20041;-69
2022/08/18 02:02:41;;;;;;;60.63;36.15;;;;;;;18.87;100.00;101198.19;4974001;28;20042;-70
2022/08/18 02:05:13;;;;;;;54.60;33.15;;;;;;;18.94;100.00;101189.56;4982669;28;20189;-70
2022/08/18 02:07:39;;;;;;;59.65;34.97;;;;;;;19.06;100.00;101191.09;4987900;28;20864;-70
2022/08/18 02:10:06;;;;;;;60.45;35.20;;;;;;;19.10;100.00;101193.38;4985009;28;20048;-69
2022/08/18 02:12:33;;;;;;;62.90;35.22;;;;;;;19.09;100.00;101193.53;4972921;28;20153;-69
2022/08/18 02:14:58;;;;;;;61.42;34.75;;;;;;;19.05;100.00;101197.50;4991212;28;20749;-70
2022/08/18 02:17:24;;;;;;;66.05;36.45;;;;;;;19.02;100.00;101189.66;4991952;28;20045;-70
2022/08/18 02:19:49;;;;;;;62.05;35.85;;;;;;;19.08;100.00;101195.38;4994415;28;20049;-69
2022/08/18 02:22:17;;;;;;;56.05;35.00;;;;;;;19.02;100.00;101195.94;4993721;28;20041;-70
2022/08/18 02:24:44;;;;;;;64.55;35.50;;;;;;;18.99;100.00;101192.69;4977827;28;20050;-70
2022/08/18 02:27:12;;;;;;;56.67;33.92;;;;;;;19.02;100.00;101195.06;4975171;28;20034;-70
2022/08/18 02:29:37;;;;;;;62.50;36.13;;;;;;;18.87;100.00;101183.84;4991526;28;20085;-70
2022/08/18 02:32:05;;;;;;;70.28;37.85;;;;;;;19.03;100.00;101194.09;4992628;28;20160;-69
2022/08/18 02:34:31;;;;;;;63.90;36.15;;;;;;;18.94;100.00;101185.00;4995758;28;20030;-69
2022/08/18 02:36:59;;;;;;;60.53;35.10;;;;;;;18.95;100.00;101188.53;4974892;28;20762;-70
2022/08/18 02:39:25;;;;;;;60.00;36.20;;;;;;;18.97;100.00;101189.25;4991287;28;20796;-70
2022/08/18 02:41:50;;;;;;;60.42;35.25;;;;;;;18.94;100.00;101193.09;4975704;28;20042;-69
2022/08/18 02:44:16;;;;;;;63.47;36.97;;;;;;;18.98;100.00;101199.94;4992688;28;20808;-70
2022/08/18 02:46:42;;;;;;;62.58;35.70;;;;;;;18.93;100.00;101198.66;4990638;28;20038;-70
2022/08/18 02:49:08;;;;;;;70.90;37.47;;;;;;;19.00;100.00;101197.09;4971541;28;20073;-70
2022/08/18 02:51:34;;;;;;;57.65;34.85;;;;;;;18.88;100.00;101199.94;4973444;28;20755;-70
2022/08/18 02:53:59;;;;;;;60.58;34.97;;;;;;;18.94;100.00;101205.75;4993913;28;20033;-70
2022/08/18 02:56:28;;;;;;;59.28;34.63;;;;;;;18.93;100.00;101202.22;4995724;28;20029;-70
2022/08/18 02:59:00;;;;;;;55.72;31.27;;;;;;;18.96;100.00;101195.66;4977477;28;20482;-70
2022/08/18 03:01:34;;;;;;;54.22;33.42;;;;;;;18.95;100.00;101202.06;4973412;28;20069;-69
2022/08/18 03:04:00;;;;;;;55.40;30.75;;;;;;;18.95;100.00;101196.66;4986332;28;20058;-69
2022/08/18 03:06:28;;;;;;;53.67;29.33;;;;;;;18.94;100.00;101205.75;4970999;28;20598;-70
2022/08/18 03:08:54;;;;;;;48.50;28.27;;;;;;;18.82;100.00;101214.00;4994754;28;20561;-70
2022/08/18 03:11:23;;;;;;;51.28;29.75;;;;;;;18.81;100.00;101206.03;4970936;28;20537;-70
2022/08/18 03:13:49;;;;;;;48.58;27.13;;;;;;;18.75;100.00;101212.00;4971488;28;20041;-70
2022/08/18 03:16:15;;;;;;;48.22;27.10;;;;;;;18.73;100.00;101214.88;4991545;28;20042;-70
2022/08/18 03:18:42;;;;;;;43.90;26.10;;;;;;;18.80;100.00;101218.69;4995647;28;20098;-70
2022/08/18 03:21:11;;;;;;;46.55;26.95;;;;;;;18.73;100.00;101222.13;4992178;28;20827;-69
2022/08/18 03:23:39;;;;;;;45.83;26.05;;;;;;;18.81;100.00;101222.25;4989174;28;20034;-70
2022/08/18 03:26:10;;;;;;;41.03;23.65;;;;;;;18.65;100.00;101217.38;4992919;28;20045;-69
2022/08/18 03:28:37;;;;;;;41.72;24.27;;;;;;;18.64;100.00;101218.38;4991308;28;20585;-70
2022/08/18 03:31:03;;;;;;;42.63;23.33;;;;;;;18.62;100.00;101217.63;4993381;28;20042;-70
2022/08/18 03:33:28;;;;;;;38.05;23.80;;;;;;;18.62;100.00;101209.53;4998684;28;20461;-70
2022/08/18 03:35:54;;;;;;;41.95;22.48;;;;;;;18.68;100.00;101200.94;4985701;28;20116;-70
2022/08/18 03:38:19;;;;;;;42.65;23.05;;;;;;;18.67;100.00;101190.22;4994311;28;20116;-70
2022/08/18 03:40:52;;;;;;;36.65;22.40;;;;;;;18.48;100.00;101197.31;4993102;28;20050;-69
2022/08/18 03:43:17;;;;;;;37.13;22.23;;;;;;;18.45;100.00;101197.56;4994980;28;20038;-70
2022/08/18 03:45:43;;;;;;;43.42;23.25;;;;;;;18.51;100.00;101198.88;4997130;28;20030;-70
2022/08/18 03:48:09;;;;;;;34.28;21.77;;;;;;;18.48;100.00;101202.72;4994552;28;20835;-70
2022/08/18 03:50:35;;;;;;;36.67;21.05;;;;;;;18.50;100.00;101200.72;4994136;28;20041;-70
2022/08/18 03:53:03;;;;;;;36.85;21.38;;;;;;;18.44;100.00;101200.44;4994671;28;20126;-70
2022/08/18 03:55:30;;;;;;;33.75;20.42;;;;;;;18.35;100.00;101194.00;4976275;28;20073;-70
2022/08/18 03:58:01;;;;;;;37.60;22.05;;;;;;;18.32;100.00;101186.16;4990676;28;20033;-68
2022/08/18 04:00:29;;;;;;;42.15;20.73;;;;;;;18.39;100.00;101195.44;4974483;28;20045;-70
2022/08/18 04:02:55;;;;;;;30.92;18.58;;;;;;;18.22;100.00;101196.09;4993142;28;20071;-70
2022/08/18 04:05:20;;;;;;;34.22;21.05;;;;;;;18.19;100.00;101191.00;4992430;28;20045;-70
2022/08/18 04:07:46;;;;;;;32.55;19.95;;;;;;;18.24;100.00;101192.28;4991618;28;20037;-70
2022/08/18 04:10:11;;;;;;;36.63;21.52;;;;;;;18.19;100.00;101197.25;4969508;28;20904;-69
2022/08/18 04:12:40;;;;;;;36.85;20.25;;;;;;;18.19;100.00;101201.78;4987489;28;20811;-70
2022/08/18 04:15:06;;;;;;;41.60;21.42;;;;;;;18.22;100.00;101205.03;4996410;28;20066;-71
2022/08/18 04:17:31;;;;;;;32.33;19.45;;;;;;;18.26;100.00;101203.78;4996474;28;20199;-70
2022/08/18 04:19:57;;;;;;;31.02;18.40;;;;;;;18.28;100.00;101212.63;4972594;28;20696;-70
2022/08/18 04:22:26;;;;;;;34.60;19.80;;;;;;;18.33;100.00;101209.50;4992995;28;20041;-70
2022/08/18 04:24:52;;;;;;;30.88;19.80;;;;;;;18.38;100.00;101207.25;4994191;28;20131;-69
2022/08/18 04:27:20;;;;;;;30.50;19.40;;;;;;;18.43;100.00;101215.78;4990998;28;20064;-70
2022/08/18 04:29:46;;;;;;;31.77;18.58;;;;;;;18.47;100.00;101213.63;4989927;28;20048;-70
2022/08/18 04:32:12;;;;;;;30.98;18.05;;;;;;;18.56;100.00;101213.66;4988673;28;20502;-70
2022/08/18 04:34:38;;;;;;;31.20;18.40;;;;;;;18.50;100.00;101211.53;4991989;28;20049;-70
2022/08/18 04:37:04;;;;;;;33.05;18.55;;;;;;;18.47;100.00;101211.78;4970096;28;20034;-69
2022/08/18 04:39:30;;;;;;;36.53;20.63;;;;;;;18.43;100.00;101212.22;4967850;28;20125;-70
2022/08/18 04:41:55;;;;;;;33.63;20.33;;;;;;;18.50;100.00;101210.66;4985893;28;20738;-70
2022/08/18 04:44:21;;;;;;;30.40;19.38;;;;;;;18.48;100.00;101213.53;4984966;28;20712;-70
2022/08/18 04:46:52;;;;;;;32.92;19.17;;;;;;;18.47;100.00;101209.09;4987573;28;20710;-71
2022/08/18 04:49:20;;;;;;;34.23;19.53;;;;;;;18.56;100.00;101210.09;4968060;28;20052;-70
2022/08/18 04:53:43;;;;;;;28.75;18.92;;;;;;;18.48;100.00;101209.97;4990930;28;20037;-70
2022/08/18 04:54:37;;;;;;;32.22;18.95;;;;;;;18.61;100.00;101207.84;4972410;28;20124;-70
2022/08/18 04:57:10;;;;;;;34.05;19.27;;;;;;;18.65;100.00;101214.66;4970469;28;20045;-70
2022/08/18 04:59:36;;;;;;;28.08;18.17;;;;;;;18.73;100.00;101212.16;4989028;28;20038;-69
2022/08/18 05:02:06;;;;;;;31.30;17.98;;;;;;;18.71;100.00;101221.38;4990990;28;20216;-70
2022/08/18 05:04:33;;;;;;;29.88;18.73;;;;;;;18.73;100.00;101220.28;4988786;28;20115;-71
2022/08/18 05:07:00;;;;;;;34.00;19.00;;;;;;;18.82;100.00;101221.25;4974301;28;20555;-70
2022/08/18 05:09:26;;;;;;;30.40;18.60;;;;;;;18.85;100.00;101229.94;4988157;28;20749;-70
2022/08/18 05:11:51;;;;;;;31.08;18.08;;;;;;;18.81;100.00;101227.66;4984800;28;20040;-70
2022/08/18 05:14:19;;;;;;;28.55;17.88;;;;;;;18.88;100.00;101228.81;4987904;28;20687;-71
2022/08/18 05:16:44;;;;;;;26.65;17.30;;;;;;;18.91;100.00;101230.38;4972928;28;20037;-70
2022/08/18 05:19:10;;;;;;;30.77;19.20;;;;;;;18.98;100.00;101229.66;4982200;28;20071;-71
2022/08/18 05:21:36;;;;;;;32.80;19.27;;;;;;;19.05;100.00;101227.25;4987719;28;20046;-71
2022/08/18 05:24:03;;;;;;;32.35;18.60;;;;;;;19.04;100.00;101222.84;4990270;28;20049;-70
2022/08/18 05:26:28;;;;;;;36.42;19.02;;;;;;;19.12;100.00;101226.50;4995858;28;20184;-70
2022/08/18 05:28:54;;;;;;;28.83;17.23;;;;;;;19.04;100.00;101225.53;4989590;28;20176;-70
2022/08/18 05:31:23;;;;;;;30.30;19.02;;;;;;;19.07;100.00;101230.63;4975184;28;20033;-70
2022/08/18 05:33:49;;;;;;;33.03;19.08;;;;;;;19.14;100.00;101238.06;4991628;28;20362;-70
2022/08/18 05:36:36;;;;;;;29.10;17.10;;;;;;;19.30;100.00;101236.63;4991049;28;20952;-70
2022/08/18 05:39:16;;;;;;;26.13;16.58;;;;;;;19.49;100.00;101227.63;4987530;28;20056;-71
2022/08/18 05:41:47;;;;;;;28.95;16.25;;;;;;;19.53;100.00;101229.91;4980949;28;20034;-71
2022/08/18 05:44:17;;;;;;;28.77;16.43;;;;;;;19.61;100.00;101231.88;4988859;28;20138;-70
2022/08/18 05:46:49;;;;;;;22.73;16.17;;;;;;;19.60;100.00;101235.59;4990028;28;20584;-70
2022/08/18 05:49:15;;;;;;;;;;;;;;;19.64;100.00;101248.69;4994933;28;20812;-69
2022/08/18 05:51:49;;;;;;;25.75;16.80;;;;;;;19.62;100.00;101247.13;4992941;28;19962;-70
2022/08/18 05:57:08;;;;;;;25.73;15.98;;;;;;;19.45;100.00;101246.00;4992165;28;20038;-71
2022/08/18 05:59:37;;;;;;;26.27;16.35;;;;;;;19.55;100.00;101244.13;4990848;28;20443;-70
2022/08/18 06:02:14;;;;;;;25.15;15.88;;;;;;;19.59;100.00;101241.97;4990194;28;20037;-70
2022/08/18 06:04:46;;;;;;;26.90;16.38;;;;;;;19.50;100.00;101249.09;4975606;28;20144;-69
2022/08/18 06:07:17;;;;;;;26.52;17.42;;;;;;;19.54;100.00;101245.13;4957267;28;20046;-69
2022/08/18 06:09:51;;;;;;;30.55;17.63;;;;;;;19.66;100.00;101243.13;4970066;28;20042;-71
2022/08/18 06:12:35;;;;;;;32.88;17.75;;;;;;;19.67;100.00;101242.97;4990023;28;20555;-70
2022/08/18 06:15:19;;;;;;;31.23;18.58;;;;;;;19.81;100.00;101236.25;4992416;28;20053;-70
2022/08/18 06:17:58;;;;;;;31.05;18.45;;;;;;;19.92;100.00;101238.75;4985442;28;20049;-70
2022/08/18 06:20:36;;;;;;;28.50;17.60;;;;;;;19.94;100.00;101243.19;4977941;28;20050;-70
2022/08/18 06:23:19;;;;;;;35.50;16.88;;;;;;;19.78;100.00;101241.97;4988422;28;20161;-70
2022/08/18 06:25:57;;;;;;;27.55;18.63;;;;;;;19.63;100.00;101249.69;4989606;28;20164;-70
2022/08/18 06:28:22;;;;;;;29.90;18.35;;;;;;;19.84;100.00;101254.06;4993144;28;20046;-70
2022/08/18 06:31:01;;;;;;;33.60;19.00;;;;;;;19.71;100.00;101254.34;4990626;28;20257;-70
2022/08/18 06:33:46;;;;;;;30.13;18.30;;;;;;;19.77;100.00;101269.16;4989867;28;20045;-70
2022/08/18 06:36:28;;;;;;;27.73;18.58;;;;;;;19.84;100.00;101270.28;4994666;28;20053;-70
2022/08/18 06:39:06;;;;;;;34.97;18.58;;;;;;;20.10;100.00;101268.63;4992437;28;20036;-70
2022/08/18 06:41:40;;;;;;;26.27;18.33;;;;;;;20.44;100.00;101265.34;4988990;28;20046;-71
2022/08/18 06:44:09;;;;;;;31.15;18.67;;;;;;;20.75;100.00;101274.03;4991652;28;20049;-71
2022/08/18 06:46:58;;;;;;;25.98;16.90;;;;;;;20.80;100.00;101276.28;4989765;28;20048;-70
2022/08/18 06:49:23;;;;;;;27.17;16.35;;;;;;;21.13;100.00;101274.72;4972841;28;20030;-71
2022/08/18 06:51:49;;;;;;;21.85;15.98;;;;;;;21.77;100.00;101272.72;4992114;28;21131;-71
2022/08/18 06:54:20;;;;;;;26.00;16.17;;;;;;;22.21;100.00;101271.66;4993695;28;20041;-70
2022/08/18 06:56:48;;;;;;;25.83;13.13;;;;;;;21.77;100.00;101279.00;4995190;28;20046;-70
2022/08/18 06:59:19;;;;;;;23.75;14.30;;;;;;;22.09;100.00;101281.09;4974592;28;20159;-71
2022/08/18 07:01:49;;;;;;;24.27;13.65;;;;;;;22.20;100.00;101278.13;4993052;28;20050;-70
2022/08/18 07:04:41;;;;;;;26.63;13.80;;;;;;;22.19;100.00;101281.84;4996332;28;20113;-71
2022/08/18 07:07:13;;;;;;;;;;;;;;;22.16;100.00;101270.47;4975011;28;20072;-70
2022/08/18 07:09:39;;;;;;;22.25;14.35;;;;;;;21.80;100.00;101280.56;4994828;28;19921;-70
2022/08/18 07:12:07;;;;;;;18.08;12.80;;;;;;;21.43;100.00;101276.22;4976332;28;20038;-70
2022/08/18 07:14:46;;;;;;;25.60;12.63;;;;;;;21.87;100.00;101273.47;5002311;28;20035;-69
2022/08/18 07:17:20;;;;;;;23.67;12.40;;;;;;;22.32;100.00;101267.81;4993465;28;20038;-70
2022/08/18 07:19:54;;;;;;;20.88;12.27;;;;;;;22.82;100.00;101264.22;4987271;28;20156;-70
2022/08/18 07:22:20;;;;;;;14.35;10.82;;;;;;;23.08;98.62;101275.00;4979189;28;20034;-70
2022/08/18 07:24:55;;;;;;;19.98;10.95;;;;;;;22.86;100.00;101278.34;4983175;28;20304;-70
2022/08/18 07:27:38;;;;;;;19.80;10.85;;;;;;;23.15;100.00;101275.22;4999361;28;20036;-70
2022/08/18 07:30:06;;;;;;;13.45;9.02;;;;;;;22.56;100.00;101271.63;4975807;28;20600;-70
2022/08/18 07:32:52;;;;;;;17.60;11.52;;;;;;;22.52;99.66;101262.97;4971401;28;20209;-70
2022/08/18 07:35:23;;;;;;;17.65;10.02;;;;;;;23.27;96.43;101269.25;4988970;28;20049;-69
2022/08/18 07:38:10;;;;;;;15.38;11.38;;;;;;;23.65;94.80;101264.16;4994260;28;20050;-71
2022/08/18 07:40:47;;;;;;;16.80;11.25;;;;;;;23.49;95.68;101275.91;4951084;28;20045;-70
2022/08/18 07:43:36;;;;;;;18.27;10.77;;;;;;;23.85;91.34;101272.81;4991602;28;20140;-71
2022/08/18 07:46:34;;;;;;;15.30;10.45;;;;;;;23.91;90.84;101271.28;4969087;28;20037;-71
2022/08/18 07:49:00;;;;;;;17.48;11.15;;;;;;;23.88;90.86;101280.63;4985459;28;20061;-71
2022/08/18 07:51:42;;;;;;;18.52;10.95;;;;;;;24.23;88.30;101281.22;4980400;28;20053;-71
2022/08/18 07:54:23;;;;;;;18.60;11.75;;;;;;;24.50;89.72;101277.22;4977857;28;20855;-70
2022/08/18 07:56:53;;;;;;;14.38;10.93;;;;;;;24.36;87.48;101278.81;4992696;28;20038;-71
2022/08/18 07:59:34;;;;;;;16.73;12.30;;;;;;;24.01;91.36;101280.09;4991333;28;20038;-71
2022/08/18 08:02:37;;;;;;;19.08;11.88;;;;;;;24.94;87.12;101293.84;4976261;28;20033;-71
2022/08/18 08:05:40;;;;;;;20.55;11.75;;;;;;;25.71;89.00;101290.22;4980097;28;20041;-71
2022/08/18 08:08:24;;;;;;;14.48;10.48;;;;;;;25.71;82.02;101282.88;4983731;28;20125;-71
2022/08/18 08:11:12;;;;;;;14.45;9.70;;;;;;;25.67;79.43;101281.53;4987128;28;20116;-71
2022/08/18 08:13:59;;;;;;;15.57;10.30;;;;;;;25.85;81.18;101288.56;4987213;28;20040;-71
2022/08/18 08:16:34;;;;;;;14.07;9.43;;;;;;;26.40;79.54;101281.78;4974227;28;20033;-71
2022/08/18 08:19:29;;;;;;;12.27;9.27;;;;;;;25.70;77.66;101278.41;4967363;28;20046;-71
2022/08/18 08:22:35;;;;;;;15.90;10.38;;;;;;;24.14;86.60;101282.25;4979518;28;20070;-71
2022/08/18 08:25:10;;;;;;;12.95;10.38;;;;;;;23.76;88.00;101293.75;4976740;28;20050;-71
2022/08/18 08:28:06;;;;;;;15.80;10.35;;;;;;;23.73;88.19;101294.09;4989515;28;20098;-70
2022/08/18 08:30:44;;;;;;;14.73;10.43;;;;;;;23.68;88.35;101295.63;4988280;28;20068;-70
2022/08/18 08:33:30;;;;;;;15.32;10.40;;;;;;;23.74;88.26;101303.13;4967678;28;20052;-71
2022/08/18 08:36:11;;;;;;;13.43;9.60;;;;;;;23.87;86.99;101297.16;4986868;28;20046;-71
2022/08/18 08:38:44;;;;;;;15.07;9.68;;;;;;;23.95;90.35;101288.97;4990486;28;20042;-71
2022/08/18 08:41:30;;;;;;;15.20;9.55;;;;;;;24.21;86.38;101286.84;4986954;28;20113;-71
2022/08/18 08:44:06;;;;;;;16.55;10.60;;;;;;;23.47;92.07;101298.84;4987817;28;20042;-71
2022/08/18 08:46:43;;;;;;;16.40;10.90;;;;;;;24.11;90.03;101296.25;4988500;28;20041;-71
2022/08/18 08:49:29;;;;;;;15.93;9.98;;;;;;;24.18;86.95;101294.50;4968638;28;20037;-71
2022/08/18 08:52:13;;;;;;;15.40;9.70;;;;;;;24.07;88.68;101292.16;4969286;28;20045;-71
2022/08/18 08:54:57;;;;;;;15.80;10.70;;;;;;;24.06;87.28;101294.03;4976116;28;20050;-71
2022/08/18 08:57:31;;;;;;;16.02;9.52;;;;;;;24.03;86.31;101306.13;4987139;28;20037;-71
2022/08/18 09:00:01;;;;;;;11.75;9.63;;;;;;;23.87;88.22;101313.50;4987372;28;20049;-70
2022/08/18 09:03:04;;;;;;;13.20;9.30;;;;;;;22.99;91.65;101322.25;4987617;28;20041;-70
2022/08/18 09:05:38;;;;;;;12.82;8.77;;;;;;;23.71;94.95;101309.78;4993058;28;20043;-70
2022/08/18 09:08:04;;;;;;;15.18;9.75;;;;;;;23.53;88.17;101304.47;4977219;28;21017;-71
2022/08/18 09:10:44;;;;;;;16.55;10.68;;;;;;;24.50;92.20;101308.06;4993518;28;20054;-71
2022/08/18 09:13:32;;;;;;;14.00;8.77;;;;;;;24.89;84.98;101296.25;4990993;28;20431;-70
2022/08/18 09:16:06;;;;;;;16.38;11.52;;;;;;;24.63;83.27;101298.47;4987929;28;20034;-72
2022/08/18 09:19:12;;;;;;;16.92;9.45;;;;;;;25.24;79.56;101294.84;4962194;28;20038;-71
2022/08/18 09:22:03;;;;;;;14.50;7.90;;;;;;;25.10;86.49;101298.38;4917647;28;20122;-71
2022/08/18 09:24:39;;;;;;;14.93;8.68;;;;;;;25.55;81.30;101304.84;4914754;28;20050;-71
2022/08/18 09:27:22;;;;;;;9.82;6.88;;;;;;;26.06;72.38;101299.63;4916256;29;20035;-71
2022/08/18 09:29:56;;;;;;;10.32;7.95;;;;;;;25.92;75.40;101304.03;4899103;29;20197;-71
2022/08/18 09:32:21;;;;;;;14.48;8.32;;;;;;;25.60;76.56;101307.03;4897238;28;20085;-71
2022/08/18 09:34:53;;;;;;;13.95;8.73;;;;;;;24.64;84.83;101311.06;4913565;28;20832;-71
2022/08/18 09:37:24;;;;;;;14.32;8.68;;;;;;;24.62;82.77;101311.25;4920542;29;20945;-71
2022/08/18 09:43:05;;;;;;;12.15;8.40;;;;;;;24.77;82.37;101314.06;4922873;28;20241;-71
2022/08/18 09:45:31;;;;;;;11.02;7.72;;;;;;;25.43;78.72;101309.91;4909114;28;20991;-71
2022/08/18 09:48:06;;;;;;;16.08;9.20;;;;;;;25.04;77.81;101312.72;4918932;28;20048;-72
2022/08/18 09:50:36;;;;;;;13.32;8.45;;;;;;;25.01;81.36;101308.47;4922023;28;20996;-71
2022/08/18 09:53:32;;;;;;;11.10;7.68;;;;;;;26.16;73.21;101304.81;4919035;28;20561;-71
2022/08/18 09:55:59;;;;;;;10.10;7.30;;;;;;;26.31;72.35;101297.47;4910695;29;21044;-71
2022/08/18 09:58:25;;;;;;;10.85;8.40;;;;;;;25.40;75.27;101293.88;4969207;28;20077;-72
2022/08/18 10:01:28;;;;;;;12.43;7.38;;;;;;;25.09;75.04;101295.84;4991876;28;20047;-71
2022/08/18 10:04:13;;;;;;;11.63;7.47;;;;;;;24.45;80.53;101298.69;4973668;28;20520;-71
2022/08/18 10:06:40;;;;;;;8.57;6.65;;;;;;;24.60;80.10;101294.22;4979804;28;20034;-71
2022/08/18 10:09:23;;;;;;;11.07;6.68;;;;;;;24.53;78.66;101288.59;4970682;28;20046;-71
2022/08/18 10:12:12;;;;;;;8.40;6.85;;;;;;;24.68;79.70;101290.59;4987773;28;20060;-71
2022/08/18 10:14:43;;;;;;;7.55;6.57;;;;;;;24.66;79.22;101295.38;4972554;28;20034;-71
2022/08/18 10:17:16;;;;;;;;;;;;;;;24.39;79.11;101296.69;4961895;28;20038;-71
2022/08/18 10:19:56;;;;;;;9.55;6.63;;;;;;;25.03;75.75;101291.91;4972623;28;19925;-72
2022/08/18 10:22:42;;;;;;;8.52;5.63;;;;;;;25.40;73.94;101296.59;4990201;28;20037;-71
2022/08/18 10:25:10;;;;;;;13.13;6.80;;;;;;;25.13;72.59;101298.03;4986637;28;20050;-71
2022/08/18 10:27:45;;;;;;;8.55;5.55;;;;;;;25.59;73.96;101295.25;4974833;28;20109;-71
2022/08/18 10:30:33;;;;;;;7.45;5.97;;;;;;;25.30;79.53;101291.44;4990827;28;20107;-71
2022/08/18 10:33:08;;;;;;;7.28;6.05;;;;;;;25.65;75.84;101290.94;4975997;28;20077;-71
2022/08/18 10:35:33;;;;;;;9.43;6.78;;;;;;;25.23;75.32;101282.25;4993428;28;20038;-70
2022/08/18 10:38:26;;;;;;;12.85;7.05;;;;;;;24.98;76.08;101291.59;4970595;28;20064;-71
2022/08/18 10:40:57;;;;;;;8.20;6.10;;;;;;;25.33;74.03;101290.19;4991060;28;20045;-71
2022/08/18 10:43:34;;;;;;;9.95;6.50;;;;;;;25.34;73.38;101293.78;4993830;28;20044;-70
2022/08/18 10:46:00;;;;;;;9.05;6.88;;;;;;;25.35;73.51;101290.84;4957894;28;20112;-71
2022/08/18 10:48:33;;;;;;;10.40;6.38;;;;;;;25.48;77.04;101290.25;4995836;28;20034;-71
2022/08/18 10:51:01;;;;;;;8.73;6.85;;;;;;;25.27;74.64;101291.78;4979191;28;20049;-71
2022/08/18 10:53:44;;;;;;;9.98;7.15;;;;;;;25.38;75.26;101285.03;4993271;28;20042;-71
2022/08/18 10:56:25;;;;;;;10.32;6.22;;;;;;;26.90;70.37;101285.56;4967835;28;20879;-71
2022/08/18 10:59:05;;;;;;;11.18;7.18;;;;;;;27.21;68.09;101283.44;4989827;28;20116;-71
2022/08/18 11:02:23;;;;;;;9.55;6.65;;;;;;;27.58;67.26;101278.69;4992710;28;20042;-71
2022/08/18 11:04:50;;;;;;;9.75;6.18;;;;;;;27.57;64.65;101283.31;4972277;28;20064;-71
2022/08/18 11:07:28;;;;;;;6.97;5.50;;;;;;;26.18;66.62;101287.16;4993117;28;20053;-71
2022/08/18 11:09:56;;;;;;;7.70;5.90;;;;;;;25.74;70.25;101287.94;4991714;28;20323;-70
2022/08/18 11:12:44;;;;;;;8.93;5.95;;;;;;;25.72;70.17;101290.03;4995906;28;20038;-70
2022/08/18 11:15:27;;;;;;;12.50;7.65;;;;;;;25.26;76.02;101295.53;4975043;28;20080;-70
2022/08/18 11:17:58;;;;;;;11.82;6.38;;;;;;;24.82;74.53;101292.56;4986330;28;20107;-70
2022/08/18 11:20:30;;;;;;;8.48;6.80;;;;;;;24.84;75.50;101287.75;4991444;28;20111;-71
2022/08/18 11:22:59;;;;;;;9.95;6.13;;;;;;;25.03;78.35;101291.91;4975012;28;20526;-71
2022/08/18 11:25:31;;;;;;;10.45;6.07;;;;;;;25.05;75.80;101282.53;4999690;28;20120;-71
2022/08/18 11:27:58;;;;;;;7.03;5.75;;;;;;;25.57;73.98;101279.06;4981204;28;20145;-72
2022/08/18 11:30:36;;;;;;;9.52;6.10;;;;;;;25.66;75.04;101281.72;4985586;28;20049;-70
2022/08/18 11:33:02;;;;;;;8.48;5.07;;;;;;;25.74;73.64;101277.00;4969771;28;20586;-71
2022/08/18 11:35:42;;;;;;;9.13;5.28;;;;;;;25.60;72.18;101276.97;4986255;28;20140;-71
2022/08/18 11:38:12;;;;;;;12.95;5.65;;;;;;;26.23;70.46;101272.94;4986928;28;20112;-71
2022/08/18 11:40:44;;;;;;;8.70;5.57;;;;;;;26.41;70.01;101262.47;4986527;28;20044;-71
2022/08/18 11:43:18;;;;;;;8.40;5.80;;;;;;;26.50;67.36;101255.84;4969161;28;20068;-72
2022/08/18 11:45:46;;;;;;;10.70;6.53;;;;;;;26.90;67.55;101256.31;4986403;28;20038;-71
2022/08/18 11:48:27;;;;;;;7.90;5.95;;;;;;;27.33;65.66;101248.13;4986259;28;20049;-71